BENALLA AIRPORT, Australia

4:24 AM AEDT on January 17, 2017 (GMT +1100)
Salisbury Street Benalla | | Change Station

Elev 564 ft 36.55 °S, 145.99 °E | Updated 1 minute ago

Clear
Clear
62.8 °F
Feels Like 62.8 °F
N
0.0
Wind Variable Wind from ESE
Gusts 0.0 mph

Today
High -- | Low -- °F
--% Chance of Precip.
Yesterday
High -- | Low -- °F
Precip. -- in
Pressure 29.83 in
Visibility 6.2 miles
Clouds
Dew Point 52 °F
Humidity 69%
Rainfall 0.00 in
Snow Depth Not available.
6:15 AM 8:35 PM
Waning Gibbous, 80% visible
METAR YWGT 161700Z AUTO 21005KT 9999 // NCD 13/11 Q1010
Pressure 29.83 in
Visibility 6.2 miles
Clouds
Dew Point 52 °F
Humidity 69%
Rainfall 0.00 in
Snow Depth Not available.
6:15 AM 8:35 PM
Waning Gibbous, 80% visible
METAR YWGT 161700Z AUTO 21005KT 9999 // NCD 13/11 Q1010

Get Your Daily Forecast Email!

Thanks for signing up!

Be on the lookout for a verification email in your inbox.

You'll start receiving the daily forecast at 8 AM.

×

10-Day Weather Forecast

×

Almanac

Astronomy

Jan. 17, 2017 Rise Set
Actual Time
Civil Twilight
Nautical Twilight
Astronomical Twilight
Moon
Length of Visible Light
Length of Day
Tomorrow will be .
, % of the Moon is Illuminated

Today's Extremes

Country Highs Country Lows

Community

WunderPhotos

Upload Photos

1,962,540 photos uploaded!

WunderBlog® & News

Nearby

Air Quality

  Air Quality AQ Index Pollutant
Not available.

Snow Depth

Station Depth Elevation

Earthquake Activity

City Distance Mag. Time & Date
Minimum magnitude displayed is 2.5.

Coastal Water Temperatures

Place Temperature

Stations

Nearby Weather Stations

Station Location Temp. Windchill Dew Point Humidity Wind Precip. Elev Updated Type